sensor_id;sensor_type;location;lat;lon;timestamp;pressure;altitude;pressure_sealevel;temperature;humidity
20636;BME280;10477;43.198;27.916;2022-08-01T00:02:07;113096.05;;;-143.34;100.00
20636;BME280;10477;43.198;27.916;2022-08-01T00:04:35;113096.05;;;-143.34;100.00
20636;BME280;10477;43.198;27.916;2022-08-01T00:07:02;113096.05;;;-143.34;100.00
20636;BME280;10477;43.198;27.916;2022-08-01T00:09:30;113096.05;;;-143.34;100.00
20636;BME280;10477;43.198;27.916;2022-08-01T00:11:57;113096.05;;;-143.34;100.00
20636;BME280;10477;43.198;27.916;2022-08-01T00:14:25;113096.05;;;-143.34;100.00
20636;BME280;10477;43.198;27.916;2022-08-01T00:16:53;113096.05;;;-143.34;100.00
20636;BME280;10477;43.198;27.916;2022-08-01T00:19:21;113096.05;;;-143.34;100.00
20636;BME280;10477;43.198;27.916;2022-08-01T00:21:48;113096.05;;;-143.34;100.00
20636;BME280;10477;43.198;27.916;2022-08-01T00:24:16;113096.05;;;-143.34;100.00
20636;BME280;10477;43.198;27.916;2022-08-01T00:26:44;113096.05;;;-143.34;100.00
20636;BME280;10477;43.198;27.916;2022-08-01T00:29:11;113096.05;;;-143.34;100.00
20636;BME280;10477;43.198;27.916;2022-08-01T00:31:39;113096.05;;;-143.34;100.00
20636;BME280;10477;43.198;27.916;2022-08-01T00:34:06;113096.05;;;-143.34;100.00
20636;BME280;10477;43.198;27.916;2022-08-01T00:36:34;113096.05;;;-143.34;100.00
20636;BME280;10477;43.198;27.916;2022-08-01T00:39:02;113096.05;;;-143.34;100.00
20636;BME280;10477;43.198;27.916;2022-08-01T00:41:29;113096.05;;;-143.34;100.00
20636;BME280;10477;43.198;27.916;2022-08-01T00:44:01;113096.05;;;-143.34;100.00
20636;BME280;10477;43.198;27.916;2022-08-01T00:46:29;113096.05;;;-143.34;100.00
20636;BME280;10477;43.198;27.916;2022-08-01T00:48:57;113096.05;;;-143.34;100.00
20636;BME280;10477;43.198;27.916;2022-08-01T00:51:27;113096.05;;;-143.34;100.00
20636;BME280;10477;43.198;27.916;2022-08-01T00:53:55;113096.05;;;-143.34;100.00
20636;BME280;10477;43.198;27.916;2022-08-01T00:56:25;113096.05;;;-143.34;100.00
20636;BME280;10477;43.198;27.916;2022-08-01T00:58:55;113096.05;;;-143.34;100.00
20636;BME280;10477;43.198;27.916;2022-08-01T01:01:23;113096.05;;;-143.34;100.00
20636;BME280;10477;43.198;27.916;2022-08-01T01:03:52;113096.05;;;-143.34;100.00
20636;BME280;10477;43.198;27.916;2022-08-01T01:12:18;113096.05;;;-143.34;100.00
20636;BME280;10477;43.198;27.916;2022-08-01T01:15:11;113096.05;;;-143.34;100.00
20636;BME280;10477;43.198;27.916;2022-08-01T01:17:40;113096.05;;;-143.34;100.00
20636;BME280;10477;43.198;27.916;2022-08-01T01:20:05;113096.05;;;-143.34;100.00
20636;BME280;10477;43.198;27.916;2022-08-01T01:22:36;113096.05;;;-143.34;100.00
20636;BME280;10477;43.198;27.916;2022-08-01T01:25:32;113096.05;;;-143.34;100.00
20636;BME280;10477;43.198;27.916;2022-08-01T01:30:35;113096.05;;;-143.34;100.00
20636;BME280;10477;43.198;27.916;2022-08-01T01:33:05;113096.05;;;-143.34;100.00
20636;BME280;10477;43.198;27.916;2022-08-01T01:35:36;113096.05;;;-143.34;100.00
20636;BME280;10477;43.198;27.916;2022-08-01T01:38:13;113096.05;;;-143.34;100.00
20636;BME280;10477;43.198;27.916;2022-08-01T01:40:38;113096.05;;;-143.34;100.00
20636;BME280;10477;43.198;27.916;2022-08-01T01:43:09;113096.05;;;-143.34;100.00
20636;BME280;10477;43.198;27.916;2022-08-01T01:45:38;113096.05;;;-143.34;100.00
20636;BME280;10477;43.198;27.916;2022-08-01T01:48:09;113096.05;;;-143.34;100.00
20636;BME280;10477;43.198;27.916;2022-08-01T01:50:38;113096.05;;;-143.34;100.00
20636;BME280;10477;43.198;27.916;2022-08-01T01:53:07;113096.05;;;-143.34;100.00
20636;BME280;10477;43.198;27.916;2022-08-01T01:55:38;113096.05;;;-143.34;100.00
20636;BME280;10477;43.198;27.916;2022-08-01T01:58:07;113096.05;;;-143.34;100.00
20636;BME280;10477;43.198;27.916;2022-08-01T02:00:37;113096.05;;;-143.34;100.00
20636;BME280;10477;43.198;27.916;2022-08-01T02:03:09;113096.05;;;-143.34;100.00
20636;BME280;10477;43.198;27.916;2022-08-01T02:05:38;113096.05;;;-143.34;100.00
20636;BME280;10477;43.198;27.916;2022-08-01T02:08:10;113096.05;;;-143.34;100.00
20636;BME280;10477;43.198;27.916;2022-08-01T02:10:39;113096.05;;;-143.34;100.00
20636;BME280;10477;43.198;27.916;2022-08-01T02:13:08;113096.05;;;-143.34;100.00
20636;BME280;10477;43.198;27.916;2022-08-01T02:15:38;113095.03;;;-143.34;100.00
20636;BME280;10477;43.198;27.916;2022-08-01T02:18:07;110759.82;;;-143.34;100.00
20636;BME280;10477;43.198;27.916;2022-08-01T02:20:38;108426.16;;;-143.34;100.00
20636;BME280;10477;43.198;27.916;2022-08-01T02:23:08;106094.05;;;-143.34;100.00
20636;BME280;10477;43.198;27.916;2022-08-01T02:25:48;102987.00;;;-143.34;100.00
20636;BME280;10477;43.198;27.916;2022-08-01T02:28:19;99882.72;;;-143.34;100.00
20636;BME280;10477;43.198;27.916;2022-08-01T02:30:49;97685.53;;;-143.34;100.00
20636;BME280;10477;43.198;27.916;2022-08-01T02:33:24;96652.05;;;-143.34;100.00
20636;BME280;10477;43.198;27.916;2022-08-01T02:35:56;96135.41;;;-143.34;100.00
20636;BME280;10477;43.198;27.916;2022-08-01T02:38:26;94844.17;;;-143.34;100.00
20636;BME280;10477;43.198;27.916;2022-08-01T02:40:57;92779.19;;;-143.34;100.00
20636;BME280;10477;43.198;27.916;2022-08-01T02:43:27;91231.25;;;-143.34;100.00
20636;BME280;10477;43.198;27.916;2022-08-01T02:45:58;90328.61;;;-143.34;100.00
20636;BME280;10477;43.198;27.916;2022-08-01T02:48:27;89426.20;;;-143.34;100.00
20636;BME280;10477;43.198;27.916;2022-08-01T02:50:58;88524.03;;;-143.34;100.00
20636;BME280;10477;43.198;27.916;2022-08-01T02:53:29;86205.25;;;-143.34;100.00
20636;BME280;10477;43.198;27.916;2022-08-01T02:55:58;81443.75;;;-143.34;100.00
20636;BME280;10477;43.198;27.916;2022-08-01T02:58:26;77587.91;;;-143.34;100.00
20636;BME280;10477;43.198;27.916;2022-08-01T03:00:56;73608.08;;;-143.34;100.00
20636;BME280;10477;43.198;27.916;2022-08-01T03:03:25;73223.17;;;-143.34;100.00
20636;BME280;10477;43.198;27.916;2022-08-01T03:05:53;70145.53;;;-143.34;100.00
20636;BME280;10477;43.198;27.916;2022-08-01T03:08:23;67454.87;;;-143.34;100.00
20636;BME280;10477;43.198;27.916;2022-08-01T03:10:52;65150.27;;;-143.34;100.00
20636;BME280;10477;43.198;27.916;2022-08-01T03:13:22;62335.65;;;-143.34;100.00
20636;BME280;10477;43.198;27.916;2022-08-01T03:15:52;59140.04;;;-143.34;100.00
20636;BME280;10477;43.198;27.916;2022-08-01T03:18:23;54798.84;;;-143.34;100.00
20636;BME280;10477;43.198;27.916;2022-08-01T03:20:53;54416.05;;;-143.34;100.00
20636;BME280;10477;43.198;27.916;2022-08-01T03:23:23;53267.97;;;-143.34;100.00
20636;BME280;10477;43.198;27.916;2022-08-01T03:25:52;49316.44;;;-143.34;100.00
20636;BME280;10477;43.198;27.916;2022-08-01T03:28:21;42952.98;;;-143.34;100.00
20636;BME280;10477;43.198;27.916;2022-08-01T03:30:51;36855.13;;;-143.34;100.00
20636;BME280;10477;43.198;27.916;2022-08-01T03:33:19;29501.66;;;-143.34;100.00
20636;BME280;10477;43.198;27.916;2022-08-01T03:35:50;24819.09;;;-143.34;100.00
20636;BME280;10477;43.198;27.916;2022-08-01T03:38:24;25198.52;;;-143.34;100.00
20636;BME280;10477;43.198;27.916;2022-08-01T03:41:06;22669.85;;;-143.34;100.00
20636;BME280;10477;43.198;27.916;2022-08-01T03:43:32;14591.04;;;-143.34;100.00
20636;BME280;10477;43.198;27.916;2022-08-01T03:45:59;5023.01;;;-143.34;100.00
20636;BME280;10477;43.198;27.916;2022-08-01T03:48:28;-8525.91;;;-143.34;100.00
20636;BME280;10477;43.198;27.916;2022-08-01T03:50:58;-17276.47;;;-143.34;100.00
20636;BME280;10477;43.198;27.916;2022-08-01T03:53:28;-17276.47;;;-143.34;100.00
20636;BME280;10477;43.198;27.916;2022-08-01T03:55:59;-17276.47;;;-143.34;100.00
20636;BME280;10477;43.198;27.916;2022-08-01T03:58:29;-17276.47;;;-143.34;100.00
20636;BME280;10477;43.198;27.916;2022-08-01T04:00:58;-17276.47;;;-143.34;100.00
20636;BME280;10477;43.198;27.916;2022-08-01T04:03:26;-17276.47;;;-143.34;100.00
20636;BME280;10477;43.198;27.916;2022-08-01T04:05:54;-17276.47;;;-143.34;100.00
20636;BME280;10477;43.198;27.916;2022-08-01T04:08:22;-17276.47;;;-143.34;100.00
20636;BME280;10477;43.198;27.916;2022-08-01T04:10:50;-17276.47;;;-143.34;100.00
20636;BME280;10477;43.198;27.916;2022-08-01T04:13:20;-17276.47;;;-143.34;100.00
20636;BME280;10477;43.198;27.916;2022-08-01T04:15:47;-17276.47;;;-143.34;100.00
20636;BME280;10477;43.198;27.916;2022-08-01T04:18:14;-17276.47;;;-143.34;100.00
20636;BME280;10477;43.198;27.916;2022-08-01T04:20:42;-17276.47;;;-143.34;100.00
20636;BME280;10477;43.198;27.916;2022-08-01T04:23:10;-17276.47;;;-143.34;100.00
20636;BME280;10477;43.198;27.916;2022-08-01T04:25:40;-17276.47;;;-143.34;100.00
20636;BME280;10477;43.198;27.916;2022-08-01T04:28:10;-17276.47;;;-143.34;100.00
20636;BME280;10477;43.198;27.916;2022-08-01T04:30:42;-17276.47;;;-143.34;100.00
20636;BME280;10477;43.198;27.916;2022-08-01T04:33:13;-17276.47;;;-143.34;100.00
20636;BME280;10477;43.198;27.916;2022-08-01T04:35:44;-17276.47;;;-143.34;100.00
20636;BME280;10477;43.198;27.916;2022-08-01T04:38:15;-17276.47;;;-143.34;100.00
20636;BME280;10477;43.198;27.916;2022-08-01T04:40:44;-17276.47;;;-143.34;100.00
20636;BME280;10477;43.198;27.916;2022-08-01T04:43:12;-17276.47;;;-143.34;100.00
20636;BME280;10477;43.198;27.916;2022-08-01T04:45:41;-17276.47;;;-143.34;100.00
20636;BME280;10477;43.198;27.916;2022-08-01T04:48:10;-17276.47;;;-143.34;100.00
20636;BME280;10477;43.198;27.916;2022-08-01T04:50:38;-17276.47;;;-143.34;100.00
20636;BME280;10477;43.198;27.916;2022-08-01T04:53:12;-17276.47;;;-143.34;100.00
20636;BME280;10477;43.198;27.916;2022-08-01T04:55:37;-17276.47;;;-143.34;100.00
20636;BME280;10477;43.198;27.916;2022-08-01T04:58:05;-17276.47;;;-143.34;100.00
20636;BME280;10477;43.198;27.916;2022-08-01T05:00:33;-17276.47;;;-143.34;100.00
20636;BME280;10477;43.198;27.916;2022-08-01T05:03:01;-17276.47;;;-143.34;100.00
20636;BME280;10477;43.198;27.916;2022-08-01T05:05:30;-17276.47;;;-143.34;100.00
20636;BME280;10477;43.198;27.916;2022-08-01T05:07:58;-17276.47;;;-143.34;100.00
20636;BME280;10477;43.198;27.916;2022-08-01T05:10:28;-17276.47;;;-143.34;100.00
20636;BME280;10477;43.198;27.916;2022-08-01T05:12:55;-17276.47;;;-143.34;100.00
20636;BME280;10477;43.198;27.916;2022-08-01T05:15:24;-17276.47;;;-143.34;100.00
20636;BME280;10477;43.198;27.916;2022-08-01T05:17:51;-17276.47;;;-143.34;100.00
20636;BME280;10477;43.198;27.916;2022-08-01T05:20:19;-17276.47;;;-143.34;100.00
20636;BME280;10477;43.198;27.916;2022-08-01T05:22:48;-17276.47;;;-143.34;100.00
20636;BME280;10477;43.198;27.916;2022-08-01T05:25:15;-17276.47;;;-143.34;100.00
20636;BME280;10477;43.198;27.916;2022-08-01T05:27:44;-17276.47;;;-143.34;100.00
20636;BME280;10477;43.198;27.916;2022-08-01T05:30:13;-17276.47;;;-143.34;100.00
20636;BME280;10477;43.198;27.916;2022-08-01T05:32:41;-17276.47;;;-143.34;100.00
20636;BME280;10477;43.198;27.916;2022-08-01T05:35:09;-17276.47;;;-143.34;100.00
20636;BME280;10477;43.198;27.916;2022-08-01T05:37:37;-17276.47;;;-143.34;100.00
20636;BME280;10477;43.198;27.916;2022-08-01T05:40:06;-17276.47;;;-143.34;100.00
20636;BME280;10477;43.198;27.916;2022-08-01T05:42:34;-17276.47;;;-143.34;100.00
20636;BME280;10477;43.198;27.916;2022-08-01T05:45:01;-17276.47;;;-143.34;100.00
20636;BME280;10477;43.198;27.916;2022-08-01T05:47:29;-17276.47;;;-143.34;100.00
20636;BME280;10477;43.198;27.916;2022-08-01T05:49:57;-17276.47;;;-143.34;100.00
20636;BME280;10477;43.198;27.916;2022-08-01T05:52:25;-17276.47;;;-143.34;100.00
20636;BME280;10477;43.198;27.916;2022-08-01T05:54:52;-17276.47;;;-143.34;100.00
20636;BME280;10477;43.198;27.916;2022-08-01T05:57:20;-17276.47;;;-143.34;100.00
20636;BME280;10477;43.198;27.916;2022-08-01T05:59:48;-17276.47;;;-143.34;100.00
20636;BME280;10477;43.198;27.916;2022-08-01T06:02:16;-17276.47;;;-143.34;100.00
20636;BME280;10477;43.198;27.916;2022-08-01T06:04:44;-17276.47;;;-143.34;100.00
20636;BME280;10477;43.198;27.916;2022-08-01T06:07:12;-17276.47;;;-143.34;100.00
20636;BME280;10477;43.198;27.916;2022-08-01T06:09:39;-17276.47;;;-143.34;100.00
20636;BME280;10477;43.198;27.916;2022-08-01T06:12:07;-17276.47;;;-143.34;100.00
20636;BME280;10477;43.198;27.916;2022-08-01T06:14:35;-17276.47;;;-143.34;100.00
20636;BME280;10477;43.198;27.916;2022-08-01T06:17:03;-17276.47;;;-143.34;100.00
20636;BME280;10477;43.198;27.916;2022-08-01T06:19:31;-17276.47;;;-143.34;100.00
20636;BME280;10477;43.198;27.916;2022-08-01T06:21:59;-17276.47;;;-143.34;100.00
20636;BME280;10477;43.198;27.916;2022-08-01T06:24:27;-17276.47;;;-143.34;100.00
20636;BME280;10477;43.198;27.916;2022-08-01T06:26:54;-17276.47;;;-143.34;100.00
20636;BME280;10477;43.198;27.916;2022-08-01T06:29:22;-17276.47;;;-143.34;100.00
20636;BME280;10477;43.198;27.916;2022-08-01T06:31:50;-17276.47;;;-143.34;100.00
20636;BME280;10477;43.198;27.916;2022-08-01T06:34:18;-17276.47;;;-143.34;100.00
20636;BME280;10477;43.198;27.916;2022-08-01T06:36:46;-17276.47;;;-143.34;100.00
20636;BME280;10477;43.198;27.916;2022-08-01T06:39:15;-17276.47;;;-143.34;100.00
20636;BME280;10477;43.198;27.916;2022-08-01T06:41:43;-17276.47;;;-143.34;100.00
20636;BME280;10477;43.198;27.916;2022-08-01T06:44:13;-17276.47;;;-143.34;100.00
20636;BME280;10477;43.198;27.916;2022-08-01T06:46:41;-17276.47;;;-143.34;100.00
20636;BME280;10477;43.198;27.916;2022-08-01T06:49:09;-17276.47;;;-143.34;100.00
20636;BME280;10477;43.198;27.916;2022-08-01T06:51:37;-17276.47;;;-143.34;100.00
20636;BME280;10477;43.198;27.916;2022-08-01T06:54:05;-17276.47;;;-143.34;100.00
20636;BME280;10477;43.198;27.916;2022-08-01T06:56:32;-17276.47;;;-143.34;100.00
20636;BME280;10477;43.198;27.916;2022-08-01T06:59:01;-17276.47;;;-143.34;100.00
20636;BME280;10477;43.198;27.916;2022-08-01T07:01:31;-17276.47;;;-143.34;100.00
20636;BME280;10477;43.198;27.916;2022-08-01T07:03:58;-17276.47;;;-143.34;100.00
20636;BME280;10477;43.198;27.916;2022-08-01T07:06:26;-17276.47;;;-143.34;100.00
20636;BME280;10477;43.198;27.916;2022-08-01T07:08:54;-17276.47;;;-143.34;100.00
20636;BME280;10477;43.198;27.916;2022-08-01T07:11:23;-17276.47;;;-143.34;100.00
20636;BME280;10477;43.198;27.916;2022-08-01T07:13:51;-17276.47;;;-143.34;100.00
20636;BME280;10477;43.198;27.916;2022-08-01T07:16:19;-17276.47;;;-143.34;100.00
20636;BME280;10477;43.198;27.916;2022-08-01T07:18:46;-17276.47;;;-143.34;100.00
20636;BME280;10477;43.198;27.916;2022-08-01T07:21:14;-17276.47;;;-143.34;100.00
20636;BME280;10477;43.198;27.916;2022-08-01T07:23:42;-17276.47;;;-143.34;100.00
20636;BME280;10477;43.198;27.916;2022-08-01T07:26:12;-17276.47;;;-143.34;100.00
20636;BME280;10477;43.198;27.916;2022-08-01T07:28:40;-17276.47;;;-143.34;100.00
20636;BME280;10477;43.198;27.916;2022-08-01T07:31:08;-17276.47;;;-143.34;100.00
20636;BME280;10477;43.198;27.916;2022-08-01T07:33:35;-17276.47;;;-143.34;100.00
20636;BME280;10477;43.198;27.916;2022-08-01T07:36:06;-17276.47;;;-143.34;100.00
20636;BME280;10477;43.198;27.916;2022-08-01T07:38:34;-17276.47;;;-143.34;100.00
20636;BME280;10477;43.198;27.916;2022-08-01T07:41:04;-17276.47;;;-143.34;100.00
20636;BME280;10477;43.198;27.916;2022-08-01T07:43:31;-17276.47;;;-143.34;100.00
20636;BME280;10477;43.198;27.916;2022-08-01T07:45:58;-17276.47;;;-143.34;100.00
20636;BME280;10477;43.198;27.916;2022-08-01T07:48:26;-17276.47;;;-143.34;100.00
20636;BME280;10477;43.198;27.916;2022-08-01T07:50:55;-17276.47;;;-143.34;100.00
20636;BME280;10477;43.198;27.916;2022-08-01T07:53:23;-17276.47;;;-143.34;100.00
20636;BME280;10477;43.198;27.916;2022-08-01T07:55:52;-17276.47;;;-143.34;100.00
20636;BME280;10477;43.198;27.916;2022-08-01T07:58:20;-17276.47;;;-143.34;100.00
20636;BME280;10477;43.198;27.916;2022-08-01T08:00:48;-17276.47;;;-143.34;100.00
20636;BME280;10477;43.198;27.916;2022-08-01T08:03:16;-17276.47;;;-143.34;100.00
20636;BME280;10477;43.198;27.916;2022-08-01T08:05:44;-17276.47;;;-143.34;100.00
20636;BME280;10477;43.198;27.916;2022-08-01T08:08:11;-17276.47;;;-143.34;100.00
20636;BME280;10477;43.198;27.916;2022-08-01T08:10:41;-17276.47;;;-143.34;100.00
20636;BME280;10477;43.198;27.916;2022-08-01T08:13:08;-17276.47;;;-143.34;100.00
20636;BME280;10477;43.198;27.916;2022-08-01T08:15:36;-17276.47;;;-143.34;100.00
20636;BME280;10477;43.198;27.916;2022-08-01T08:18:04;-17276.47;;;-143.34;100.00
20636;BME280;10477;43.198;27.916;2022-08-01T08:20:32;-17276.47;;;-143.34;100.00
20636;BME280;10477;43.198;27.916;2022-08-01T08:23:00;-17276.47;;;-143.34;100.00
20636;BME280;10477;43.198;27.916;2022-08-01T08:25:29;-17276.47;;;-143.34;100.00
20636;BME280;10477;43.198;27.916;2022-08-01T08:27:57;-17276.47;;;-143.34;100.00
20636;BME280;10477;43.198;27.916;2022-08-01T08:30:25;-17276.47;;;-143.34;100.00
20636;BME280;10477;43.198;27.916;2022-08-01T08:32:52;-17276.47;;;-143.34;100.00
20636;BME280;10477;43.198;27.916;2022-08-01T08:35:20;-17276.47;;;-143.34;100.00
20636;BME280;10477;43.198;27.916;2022-08-01T08:37:48;-17276.47;;;-143.34;100.00
20636;BME280;10477;43.198;27.916;2022-08-01T08:40:16;-17276.47;;;-143.34;100.00
20636;BME280;10477;43.198;27.916;2022-08-01T08:42:45;-17276.47;;;-143.34;97.41
20636;BME280;10477;43.198;27.916;2022-08-01T08:45:13;-17276.47;;;-143.34;100.00
20636;BME280;10477;43.198;27.916;2022-08-01T08:47:42;-17276.47;;;-143.34;100.00
20636;BME280;10477;43.198;27.916;2022-08-01T08:50:13;-17276.47;;;-143.34;100.00
20636;BME280;10477;43.198;27.916;2022-08-01T08:52:40;-17276.47;;;-143.34;100.00
20636;BME280;10477;43.198;27.916;2022-08-01T08:55:11;-17276.47;;;-143.34;96.62
20636;BME280;10477;43.198;27.916;2022-08-01T08:57:43;-17276.47;;;-143.34;97.56
20636;BME280;10477;43.198;27.916;2022-08-01T09:00:13;-17276.47;;;-143.34;95.48
20636;BME280;10477;43.198;27.916;2022-08-01T09:02:45;-17276.47;;;-143.34;98.52
20636;BME280;10477;43.198;27.916;2022-08-01T09:05:15;-17276.47;;;-143.34;93.91
20636;BME280;10477;43.198;27.916;2022-08-01T09:07:44;-17276.47;;;-143.34;97.52
20636;BME280;10477;43.198;27.916;2022-08-01T09:10:11;-17276.47;;;-143.34;96.25
20636;BME280;10477;43.198;27.916;2022-08-01T09:12:39;-17276.47;;;-143.34;96.11
20636;BME280;10477;43.198;27.916;2022-08-01T09:15:08;-17276.47;;;-143.34;95.72
20636;BME280;10477;43.198;27.916;2022-08-01T09:20:27;-17276.47;;;-143.34;90.12
20636;BME280;10477;43.198;27.916;2022-08-01T09:22:57;-17276.47;;;-143.34;87.72
20636;BME280;10477;43.198;27.916;2022-08-01T09:25:24;-17276.47;;;-143.34;87.91
20636;BME280;10477;43.198;27.916;2022-08-01T09:28:05;-17276.47;;;-143.34;90.29
20636;BME280;10477;43.198;27.916;2022-08-01T09:30:39;-17276.47;;;-143.34;84.24
20636;BME280;10477;43.198;27.916;2022-08-01T09:33:07;-17276.47;;;-143.34;83.70
20636;BME280;10477;43.198;27.916;2022-08-01T09:35:37;-17276.47;;;-143.34;82.65
20636;BME280;10477;43.198;27.916;2022-08-01T09:38:14;-17276.47;;;-143.34;83.08
20636;BME280;10477;43.198;27.916;2022-08-01T09:40:47;-17276.47;;;-143.34;79.90
20636;BME280;10477;43.198;27.916;2022-08-01T09:43:16;-17276.47;;;-143.34;80.56
20636;BME280;10477;43.198;27.916;2022-08-01T09:45:44;-17276.47;;;-143.34;80.36
20636;BME280;10477;43.198;27.916;2022-08-01T09:48:12;-17276.47;;;-143.34;81.13
20636;BME280;10477;43.198;27.916;2022-08-01T09:50:41;-17276.47;;;-143.34;82.30
20636;BME280;10477;43.198;27.916;2022-08-01T09:53:11;-17276.47;;;-143.34;76.75
20636;BME280;10477;43.198;27.916;2022-08-01T09:55:42;-17276.47;;;-143.34;79.41
20636;BME280;10477;43.198;27.916;2022-08-01T09:58:12;-17276.47;;;-143.34;76.30
20636;BME280;10477;43.198;27.916;2022-08-01T10:00:40;-17276.47;;;-143.34;77.07
20636;BME280;10477;43.198;27.916;2022-08-01T10:03:25;-17276.47;;;-143.34;78.02
20636;BME280;10477;43.198;27.916;2022-08-01T10:05:53;-17276.47;;;-143.34;76.06
20636;BME280;10477;43.198;27.916;2022-08-01T10:08:22;-17276.47;;;-143.34;75.76
20636;BME280;10477;43.198;27.916;2022-08-01T10:11:09;-17276.47;;;-143.34;73.09
20636;BME280;10477;43.198;27.916;2022-08-01T10:13:38;-17276.47;;;-143.34;70.77
20636;BME280;10477;43.198;27.916;2022-08-01T10:16:07;-17276.47;;;-143.34;68.69
20636;BME280;10477;43.198;27.916;2022-08-01T10:18:37;-17276.47;;;-143.34;69.44
20636;BME280;10477;43.198;27.916;2022-08-01T10:21:06;-17276.47;;;-143.34;66.57
20636;BME280;10477;43.198;27.916;2022-08-01T10:23:35;-17276.47;;;-143.34;68.31
20636;BME280;10477;43.198;27.916;2022-08-01T10:26:07;-17276.47;;;-143.34;67.67
20636;BME280;10477;43.198;27.916;2022-08-01T10:28:37;-17276.47;;;-143.34;67.21
20636;BME280;10477;43.198;27.916;2022-08-01T10:31:07;-17276.47;;;-143.34;66.30
20636;BME280;10477;43.198;27.916;2022-08-01T10:33:35;-17276.47;;;-143.34;65.74
20636;BME280;10477;43.198;27.916;2022-08-01T10:36:05;-17276.47;;;-143.34;65.71
20636;BME280;10477;43.198;27.916;2022-08-01T10:38:35;-17276.47;;;-143.34;65.85
20636;BME280;10477;43.198;27.916;2022-08-01T10:41:03;-17276.47;;;-143.34;64.62
20636;BME280;10477;43.198;27.916;2022-08-01T10:43:32;-17276.47;;;-143.34;68.76
20636;BME280;10477;43.198;27.916;2022-08-01T10:46:01;-17276.47;;;-143.34;67.77
20636;BME280;10477;43.198;27.916;2022-08-01T10:48:44;-17276.47;;;-143.34;65.84
20636;BME280;10477;43.198;27.916;2022-08-01T10:51:04;-17276.47;;;-143.34;63.97
20636;BME280;10477;43.198;27.916;2022-08-01T10:53:33;-17276.47;;;-143.34;64.80
20636;BME280;10477;43.198;27.916;2022-08-01T10:56:03;-17276.47;;;-143.34;64.03
20636;BME280;10477;43.198;27.916;2022-08-01T10:58:34;-17276.47;;;-143.34;63.40
20636;BME280;10477;43.198;27.916;2022-08-01T11:01:24;-17276.47;;;-143.34;63.94
20636;BME280;10477;43.198;27.916;2022-08-01T11:03:58;-17276.47;;;-143.34;64.53
20636;BME280;10477;43.198;27.916;2022-08-01T11:06:52;-17276.47;;;-143.34;64.60
20636;BME280;10477;43.198;27.916;2022-08-01T11:09:23;-17276.47;;;-143.34;65.97
20636;BME280;10477;43.198;27.916;2022-08-01T11:12:01;-17276.47;;;-143.34;66.02
20636;BME280;10477;43.198;27.916;2022-08-01T11:14:32;-17276.47;;;-143.34;66.10
20636;BME280;10477;43.198;27.916;2022-08-01T11:17:33;-17276.47;;;-143.34;66.66
20636;BME280;10477;43.198;27.916;2022-08-01T11:20:15;-17276.47;;;-143.34;66.75
20636;BME280;10477;43.198;27.916;2022-08-01T11:30:48;-17276.47;;;-143.34;63.32
20636;BME280;10477;43.198;27.916;2022-08-01T11:33:17;-17276.47;;;-143.34;62.56
20636;BME280;10477;43.198;27.916;2022-08-01T11:39:10;-17276.47;;;-143.34;62.72
20636;BME280;10477;43.198;27.916;2022-08-01T11:41:24;-17276.47;;;-143.34;61.76
20636;BME280;10477;43.198;27.916;2022-08-01T11:44:03;-17276.47;;;-143.34;62.38
20636;BME280;10477;43.198;27.916;2022-08-01T11:46:55;-17276.47;;;-143.34;59.94
20636;BME280;10477;43.198;27.916;2022-08-01T11:52:07;-17276.47;;;-143.34;57.40
20636;BME280;10477;43.198;27.916;2022-08-01T11:54:56;-17276.47;;;-143.34;56.91
20636;BME280;10477;43.198;27.916;2022-08-01T11:57:17;-17276.47;;;-143.34;57.40
20636;BME280;10477;43.198;27.916;2022-08-01T11:59:46;-17276.47;;;-143.34;58.07
20636;BME280;10477;43.198;27.916;2022-08-01T12:02:20;-17276.47;;;-143.34;58.69
20636;BME280;10477;43.198;27.916;2022-08-01T12:07:29;-17276.47;;;-143.34;57.80
20636;BME280;10477;43.198;27.916;2022-08-01T12:12:34;-17276.47;;;-143.34;58.31
20636;BME280;10477;43.198;27.916;2022-08-01T12:15:05;-17276.47;;;-143.34;58.31
20636;BME280;10477;43.198;27.916;2022-08-01T12:17:41;-17276.47;;;-143.34;58.43
20636;BME280;10477;43.198;27.916;2022-08-01T12:20:15;-17276.47;;;-143.34;58.66
20636;BME280;10477;43.198;27.916;2022-08-01T12:22:43;-17276.47;;;-143.34;59.62
20636;BME280;10477;43.198;27.916;2022-08-01T12:25:13;-17276.47;;;-143.34;60.36
20636;BME280;10477;43.198;27.916;2022-08-01T12:27:43;-17276.47;;;-143.34;61.72
20636;BME280;10477;43.198;27.916;2022-08-01T12:30:13;-17276.47;;;-143.34;60.37
20636;BME280;10477;43.198;27.916;2022-08-01T12:32:46;-17276.47;;;-143.34;60.49
20636;BME280;10477;43.198;27.916;2022-08-01T12:35:19;-17276.47;;;-143.34;58.30
20636;BME280;10477;43.198;27.916;2022-08-01T12:38:15;-17276.47;;;-143.34;59.34
20636;BME280;10477;43.198;27.916;2022-08-01T12:40:46;-17276.47;;;-143.34;61.51
20636;BME280;10477;43.198;27.916;2022-08-01T12:43:18;-17276.47;;;-143.34;61.33
20636;BME280;10477;43.198;27.916;2022-08-01T12:45:49;-17276.47;;;-143.34;62.58
20636;BME280;10477;43.198;27.916;2022-08-01T12:48:19;-17276.47;;;-143.34;61.06
20636;BME280;10477;43.198;27.916;2022-08-01T12:50:48;-17276.47;;;-143.34;60.69
20636;BME280;10477;43.198;27.916;2022-08-01T12:53:17;-17276.47;;;-143.34;61.49
20636;BME280;10477;43.198;27.916;2022-08-01T12:55:51;-17276.47;;;-143.34;61.02
20636;BME280;10477;43.198;27.916;2022-08-01T12:58:20;-17276.47;;;-143.34;60.35
20636;BME280;10477;43.198;27.916;2022-08-01T13:00:50;-17276.47;;;-143.34;60.19